sensor_id;sensor_type;location;lat;lon;timestamp;temperature;humidity
63313;DHT22;49442;45.640;13.812;2023-05-23T00:01:42;19.00;92.30
63313;DHT22;49442;45.640;13.812;2023-05-23T00:04:09;19.00;92.40
63313;DHT22;49442;45.640;13.812;2023-05-23T00:06:44;19.00;92.30
63313;DHT22;49442;45.640;13.812;2023-05-23T00:09:14;19.00;92.20
63313;DHT22;49442;45.640;13.812;2023-05-23T00:11:40;19.00;92.40
63313;DHT22;49442;45.640;13.812;2023-05-23T00:14:11;19.00;92.20
63313;DHT22;49442;45.640;13.812;2023-05-23T00:16:41;19.00;92.10
63313;DHT22;49442;45.640;13.812;2023-05-23T00:19:08;19.00;92.20
63313;DHT22;49442;45.640;13.812;2023-05-23T00:21:35;18.90;92.30
63313;DHT22;49442;45.640;13.812;2023-05-23T00:24:00;18.80;92.20
63313;DHT22;49442;45.640;13.812;2023-05-23T00:26:29;18.80;92.20
63313;DHT22;49442;45.640;13.812;2023-05-23T00:28:55;18.80;92.20
63313;DHT22;49442;45.640;13.812;2023-05-23T00:31:22;18.90;92.10
63313;DHT22;49442;45.640;13.812;2023-05-23T00:33:47;18.80;92.00
63313;DHT22;49442;45.640;13.812;2023-05-23T00:36:13;18.80;92.20
63313;DHT22;49442;45.640;13.812;2023-05-23T00:38:39;18.80;92.10
63313;DHT22;49442;45.640;13.812;2023-05-23T00:41:05;18.80;92.10
63313;DHT22;49442;45.640;13.812;2023-05-23T00:43:31;18.80;92.00
63313;DHT22;49442;45.640;13.812;2023-05-23T00:45:57;18.70;91.90
63313;DHT22;49442;45.640;13.812;2023-05-23T00:48:24;18.70;92.00
63313;DHT22;49442;45.640;13.812;2023-05-23T00:50:51;18.70;91.70
63313;DHT22;49442;45.640;13.812;2023-05-23T00:53:17;18.70;92.10
63313;DHT22;49442;45.640;13.812;2023-05-23T00:55:43;18.80;92.00
63313;DHT22;49442;45.640;13.812;2023-05-23T00:58:10;18.80;91.90
63313;DHT22;49442;45.640;13.812;2023-05-23T01:00:37;18.80;92.00
63313;DHT22;49442;45.640;13.812;2023-05-23T01:03:03;18.80;91.80
63313;DHT22;49442;45.640;13.812;2023-05-23T01:05:29;18.90;91.80
63313;DHT22;49442;45.640;13.812;2023-05-23T01:07:55;18.80;91.80
63313;DHT22;49442;45.640;13.812;2023-05-23T01:10:26;18.90;92.20
63313;DHT22;49442;45.640;13.812;2023-05-23T01:16:00;18.90;91.80
63313;DHT22;49442;45.640;13.812;2023-05-23T01:18:35;18.90;91.80
63313;DHT22;49442;45.640;13.812;2023-05-23T01:21:16;18.90;91.60
63313;DHT22;49442;45.640;13.812;2023-05-23T01:29:10;18.80;91.60
63313;DHT22;49442;45.640;13.812;2023-05-23T01:31:42;18.80;91.70
63313;DHT22;49442;45.640;13.812;2023-05-23T01:34:12;18.80;91.70
63313;DHT22;49442;45.640;13.812;2023-05-23T01:36:40;18.80;91.80
63313;DHT22;49442;45.640;13.812;2023-05-23T01:39:06;18.70;91.80
63313;DHT22;49442;45.640;13.812;2023-05-23T01:41:32;18.80;91.90
63313;DHT22;49442;45.640;13.812;2023-05-23T01:43:58;18.70;92.10
63313;DHT22;49442;45.640;13.812;2023-05-23T01:46:26;18.70;92.00
63313;DHT22;49442;45.640;13.812;2023-05-23T01:48:53;18.70;91.90
63313;DHT22;49442;45.640;13.812;2023-05-23T01:51:21;18.70;92.00
63313;DHT22;49442;45.640;13.812;2023-05-23T01:53:48;18.60;92.00
63313;DHT22;49442;45.640;13.812;2023-05-23T01:56:14;18.60;92.10
63313;DHT22;49442;45.640;13.812;2023-05-23T01:58:40;18.60;92.20
63313;DHT22;49442;45.640;13.812;2023-05-23T02:01:06;18.50;92.20
63313;DHT22;49442;45.640;13.812;2023-05-23T02:03:31;18.50;92.50
63313;DHT22;49442;45.640;13.812;2023-05-23T02:05:57;18.40;92.60
63313;DHT22;49442;45.640;13.812;2023-05-23T02:08:23;18.30;92.70
63313;DHT22;49442;45.640;13.812;2023-05-23T02:10:49;18.30;92.80
63313;DHT22;49442;45.640;13.812;2023-05-23T02:13:14;18.30;93.00
63313;DHT22;49442;45.640;13.812;2023-05-23T02:15:40;18.30;92.90
63313;DHT22;49442;45.640;13.812;2023-05-23T02:18:06;18.30;92.90
63313;DHT22;49442;45.640;13.812;2023-05-23T02:20:32;18.30;93.00
63313;DHT22;49442;45.640;13.812;2023-05-23T02:22:57;18.20;93.20
63313;DHT22;49442;45.640;13.812;2023-05-23T02:25:23;18.20;93.20
63313;DHT22;49442;45.640;13.812;2023-05-23T02:27:49;18.10;93.20
63313;DHT22;49442;45.640;13.812;2023-05-23T02:30:15;18.10;93.60
63313;DHT22;49442;45.640;13.812;2023-05-23T02:32:40;18.10;93.60
63313;DHT22;49442;45.640;13.812;2023-05-23T02:35:07;18.00;93.70
63313;DHT22;49442;45.640;13.812;2023-05-23T02:37:32;18.00;93.70
63313;DHT22;49442;45.640;13.812;2023-05-23T02:39:58;18.00;93.80
63313;DHT22;49442;45.640;13.812;2023-05-23T02:42:24;18.00;93.80
63313;DHT22;49442;45.640;13.812;2023-05-23T02:44:50;18.10;93.80
63313;DHT22;49442;45.640;13.812;2023-05-23T02:47:15;18.20;93.50
63313;DHT22;49442;45.640;13.812;2023-05-23T02:49:41;18.20;93.50
63313;DHT22;49442;45.640;13.812;2023-05-23T02:52:07;18.10;93.60
63313;DHT22;49442;45.640;13.812;2023-05-23T02:54:33;18.10;93.60
63313;DHT22;49442;45.640;13.812;2023-05-23T02:56:58;18.10;94.00
63313;DHT22;49442;45.640;13.812;2023-05-23T02:59:24;18.10;93.70
63313;DHT22;49442;45.640;13.812;2023-05-23T03:01:51;18.10;93.70
63313;DHT22;49442;45.640;13.812;2023-05-23T03:04:16;18.10;93.80
63313;DHT22;49442;45.640;13.812;2023-05-23T03:06:43;18.00;93.90
63313;DHT22;49442;45.640;13.812;2023-05-23T03:09:08;18.00;93.90
63313;DHT22;49442;45.640;13.812;2023-05-23T03:11:35;18.00;94.00
63313;DHT22;49442;45.640;13.812;2023-05-23T03:14:01;17.90;94.10
63313;DHT22;49442;45.640;13.812;2023-05-23T03:16:26;17.90;94.30
63313;DHT22;49442;45.640;13.812;2023-05-23T03:18:52;17.90;94.30
63313;DHT22;49442;45.640;13.812;2023-05-23T03:21:18;17.90;94.40
63313;DHT22;49442;45.640;13.812;2023-05-23T03:23:44;17.90;94.40
63313;DHT22;49442;45.640;13.812;2023-05-23T03:26:09;17.90;94.30
63313;DHT22;49442;45.640;13.812;2023-05-23T03:28:36;17.90;94.40
63313;DHT22;49442;45.640;13.812;2023-05-23T03:31:02;17.90;94.50
63313;DHT22;49442;45.640;13.812;2023-05-23T03:33:27;17.90;94.50
63313;DHT22;49442;45.640;13.812;2023-05-23T03:35:53;17.90;94.40
63313;DHT22;49442;45.640;13.812;2023-05-23T03:38:19;18.00;94.10
63313;DHT22;49442;45.640;13.812;2023-05-23T03:40:45;18.00;94.30
63313;DHT22;49442;45.640;13.812;2023-05-23T03:43:11;18.00;94.10
63313;DHT22;49442;45.640;13.812;2023-05-23T03:45:37;18.00;94.20
63313;DHT22;49442;45.640;13.812;2023-05-23T03:48:03;17.90;94.20
63313;DHT22;49442;45.640;13.812;2023-05-23T03:50:28;17.90;94.30
63313;DHT22;49442;45.640;13.812;2023-05-23T03:52:54;18.00;94.40
63313;DHT22;49442;45.640;13.812;2023-05-23T03:55:20;18.00;94.40
63313;DHT22;49442;45.640;13.812;2023-05-23T03:57:53;18.00;94.60
63313;DHT22;49442;45.640;13.812;2023-05-23T04:00:19;17.90;95.10
63313;DHT22;49442;45.640;13.812;2023-05-23T04:02:45;17.90;94.50
63313;DHT22;49442;45.640;13.812;2023-05-23T04:05:11;18.00;94.40
63313;DHT22;49442;45.640;13.812;2023-05-23T04:07:37;18.00;94.60
63313;DHT22;49442;45.640;13.812;2023-05-23T04:10:04;18.10;94.50
63313;DHT22;49442;45.640;13.812;2023-05-23T04:12:30;18.20;94.40
63313;DHT22;49442;45.640;13.812;2023-05-23T04:14:56;18.20;94.40
63313;DHT22;49442;45.640;13.812;2023-05-23T04:17:23;18.30;94.20
63313;DHT22;49442;45.640;13.812;2023-05-23T04:19:49;18.30;94.40
63313;DHT22;49442;45.640;13.812;2023-05-23T04:22:15;18.20;94.60
63313;DHT22;49442;45.640;13.812;2023-05-23T04:24:41;18.20;94.80
63313;DHT22;49442;45.640;13.812;2023-05-23T04:27:07;18.30;94.70
63313;DHT22;49442;45.640;13.812;2023-05-23T04:29:33;18.20;94.90
63313;DHT22;49442;45.640;13.812;2023-05-23T04:32:00;18.20;94.90
63313;DHT22;49442;45.640;13.812;2023-05-23T04:34:26;18.30;95.00
63313;DHT22;49442;45.640;13.812;2023-05-23T04:36:52;18.20;95.20
63313;DHT22;49442;45.640;13.812;2023-05-23T04:39:19;18.30;95.10
63313;DHT22;49442;45.640;13.812;2023-05-23T04:41:45;18.40;95.10
63313;DHT22;49442;45.640;13.812;2023-05-23T04:44:11;18.50;95.10
63313;DHT22;49442;45.640;13.812;2023-05-23T04:46:39;18.50;95.20
63313;DHT22;49442;45.640;13.812;2023-05-23T04:49:09;18.50;95.50
63313;DHT22;49442;45.640;13.812;2023-05-23T04:51:35;18.50;95.40
63313;DHT22;49442;45.640;13.812;2023-05-23T04:54:02;18.50;95.70
63313;DHT22;49442;45.640;13.812;2023-05-23T04:56:28;18.60;95.50
63313;DHT22;49442;45.640;13.812;2023-05-23T04:58:54;18.70;95.40
63313;DHT22;49442;45.640;13.812;2023-05-23T05:01:20;18.80;95.50
63313;DHT22;49442;45.640;13.812;2023-05-23T05:03:49;18.80;95.40
63313;DHT22;49442;45.640;13.812;2023-05-23T05:06:15;18.90;95.70
63313;DHT22;49442;45.640;13.812;2023-05-23T05:08:42;18.90;96.50
63313;DHT22;49442;45.640;13.812;2023-05-23T05:11:08;18.90;96.00
63313;DHT22;49442;45.640;13.812;2023-05-23T05:13:34;18.90;96.00
63313;DHT22;49442;45.640;13.812;2023-05-23T05:16:00;18.90;96.10
63313;DHT22;49442;45.640;13.812;2023-05-23T05:18:27;19.00;96.30
63313;DHT22;49442;45.640;13.812;2023-05-23T05:20:53;19.00;96.80
63313;DHT22;49442;45.640;13.812;2023-05-23T05:23:19;19.10;96.30
63313;DHT22;49442;45.640;13.812;2023-05-23T05:25:45;19.20;96.30
63313;DHT22;49442;45.640;13.812;2023-05-23T05:28:12;19.40;96.30
63313;DHT22;49442;45.640;13.812;2023-05-23T05:30:37;19.50;96.10
63313;DHT22;49442;45.640;13.812;2023-05-23T05:33:04;19.50;96.20
63313;DHT22;49442;45.640;13.812;2023-05-23T05:35:30;19.60;96.30
63313;DHT22;49442;45.640;13.812;2023-05-23T05:37:57;19.60;96.10
63313;DHT22;49442;45.640;13.812;2023-05-23T05:40:23;19.60;96.60
63313;DHT22;49442;45.640;13.812;2023-05-23T05:42:49;19.60;96.70
63313;DHT22;49442;45.640;13.812;2023-05-23T05:45:15;19.70;96.60
63313;DHT22;49442;45.640;13.812;2023-05-23T05:47:41;19.80;96.60
63313;DHT22;49442;45.640;13.812;2023-05-23T05:50:07;19.90;96.50
63313;DHT22;49442;45.640;13.812;2023-05-23T05:52:34;20.00;96.30
63313;DHT22;49442;45.640;13.812;2023-05-23T05:55:08;20.10;96.50
63313;DHT22;49442;45.640;13.812;2023-05-23T05:57:38;20.20;96.60
63313;DHT22;49442;45.640;13.812;2023-05-23T06:00:15;20.40;96.10
63313;DHT22;49442;45.640;13.812;2023-05-23T06:02:44;20.50;95.80
63313;DHT22;49442;45.640;13.812;2023-05-23T06:05:15;20.70;95.30
63313;DHT22;49442;45.640;13.812;2023-05-23T06:07:54;20.80;95.60
63313;DHT22;49442;45.640;13.812;2023-05-23T06:10:19;20.90;95.50
63313;DHT22;49442;45.640;13.812;2023-05-23T06:12:45;21.00;95.70
63313;DHT22;49442;45.640;13.812;2023-05-23T06:15:11;21.10;95.70
63313;DHT22;49442;45.640;13.812;2023-05-23T06:17:39;21.10;96.20
63313;DHT22;49442;45.640;13.812;2023-05-23T06:20:05;21.20;96.10
63313;DHT22;49442;45.640;13.812;2023-05-23T06:22:35;21.30;95.70
63313;DHT22;49442;45.640;13.812;2023-05-23T06:25:01;21.40;96.30
63313;DHT22;49442;45.640;13.812;2023-05-23T06:27:30;21.40;96.30
63313;DHT22;49442;45.640;13.812;2023-05-23T06:29:55;21.50;96.40
63313;DHT22;49442;45.640;13.812;2023-05-23T06:32:30;21.60;96.70
63313;DHT22;49442;45.640;13.812;2023-05-23T06:34:56;21.70;96.60
63313;DHT22;49442;45.640;13.812;2023-05-23T06:37:22;21.80;96.80
63313;DHT22;49442;45.640;13.812;2023-05-23T06:39:48;21.80;96.60
63313;DHT22;49442;45.640;13.812;2023-05-23T06:42:17;21.90;96.00
63313;DHT22;49442;45.640;13.812;2023-05-23T06:44:43;22.10;95.00
63313;DHT22;49442;45.640;13.812;2023-05-23T06:47:13;22.20;93.80
63313;DHT22;49442;45.640;13.812;2023-05-23T06:49:38;22.20;93.20
63313;DHT22;49442;45.640;13.812;2023-05-23T06:52:04;22.30;93.80
63313;DHT22;49442;45.640;13.812;2023-05-23T06:54:30;22.40;95.90
63313;DHT22;49442;45.640;13.812;2023-05-23T06:56:56;22.50;94.80
63313;DHT22;49442;45.640;13.812;2023-05-23T06:59:21;22.50;95.50
63313;DHT22;49442;45.640;13.812;2023-05-23T07:01:47;22.50;94.30
63313;DHT22;49442;45.640;13.812;2023-05-23T07:04:13;22.50;95.20
63313;DHT22;49442;45.640;13.812;2023-05-23T07:06:38;22.60;94.40
63313;DHT22;49442;45.640;13.812;2023-05-23T07:09:04;22.60;94.00
63313;DHT22;49442;45.640;13.812;2023-05-23T07:11:30;22.60;93.90
63313;DHT22;49442;45.640;13.812;2023-05-23T07:13:56;22.60;93.80
63313;DHT22;49442;45.640;13.812;2023-05-23T07:16:21;22.70;94.20
63313;DHT22;49442;45.640;13.812;2023-05-23T07:18:47;22.70;93.80
63313;DHT22;49442;45.640;13.812;2023-05-23T07:21:13;22.70;93.70
63313;DHT22;49442;45.640;13.812;2023-05-23T07:23:39;22.70;94.50
63313;DHT22;49442;45.640;13.812;2023-05-23T07:26:05;22.80;94.60
63313;DHT22;49442;45.640;13.812;2023-05-23T07:28:34;22.90;94.70
63313;DHT22;49442;45.640;13.812;2023-05-23T07:31:00;22.90;93.30
63313;DHT22;49442;45.640;13.812;2023-05-23T07:33:26;23.00;93.60
63313;DHT22;49442;45.640;13.812;2023-05-23T07:35:51;23.10;93.10
63313;DHT22;49442;45.640;13.812;2023-05-23T07:38:17;23.10;93.80
63313;DHT22;49442;45.640;13.812;2023-05-23T07:40:43;23.10;93.30
63313;DHT22;49442;45.640;13.812;2023-05-23T07:43:08;23.20;93.80
63313;DHT22;49442;45.640;13.812;2023-05-23T07:45:34;23.30;93.20
63313;DHT22;49442;45.640;13.812;2023-05-23T07:48:00;23.30;93.80
63313;DHT22;49442;45.640;13.812;2023-05-23T07:50:26;23.40;92.70
63313;DHT22;49442;45.640;13.812;2023-05-23T07:52:52;23.40;92.60
63313;DHT22;49442;45.640;13.812;2023-05-23T07:55:18;23.40;92.20
63313;DHT22;49442;45.640;13.812;2023-05-23T07:57:43;23.50;91.90
63313;DHT22;49442;45.640;13.812;2023-05-23T08:00:10;23.60;92.50
63313;DHT22;49442;45.640;13.812;2023-05-23T08:02:36;23.60;92.20
63313;DHT22;49442;45.640;13.812;2023-05-23T08:05:02;23.70;93.00
63313;DHT22;49442;45.640;13.812;2023-05-23T08:07:28;23.90;92.00
63313;DHT22;49442;45.640;13.812;2023-05-23T08:09:53;23.90;91.10
63313;DHT22;49442;45.640;13.812;2023-05-23T08:12:19;24.00;91.60
63313;DHT22;49442;45.640;13.812;2023-05-23T08:14:45;24.10;91.70
63313;DHT22;49442;45.640;13.812;2023-05-23T08:17:12;24.10;91.60
63313;DHT22;49442;45.640;13.812;2023-05-23T08:19:37;24.20;91.30
63313;DHT22;49442;45.640;13.812;2023-05-23T08:22:04;24.20;91.80
63313;DHT22;49442;45.640;13.812;2023-05-23T08:24:30;24.30;92.50
63313;DHT22;49442;45.640;13.812;2023-05-23T08:26:56;24.30;92.30
63313;DHT22;49442;45.640;13.812;2023-05-23T08:29:21;24.30;90.10
63313;DHT22;49442;45.640;13.812;2023-05-23T08:31:47;24.30;90.70
63313;DHT22;49442;45.640;13.812;2023-05-23T08:34:13;24.20;89.00
63313;DHT22;49442;45.640;13.812;2023-05-23T08:36:39;24.00;89.00
63313;DHT22;49442;45.640;13.812;2023-05-23T08:39:06;24.00;90.50
63313;DHT22;49442;45.640;13.812;2023-05-23T08:41:33;24.10;91.80
63313;DHT22;49442;45.640;13.812;2023-05-23T08:43:59;23.90;87.90
63313;DHT22;49442;45.640;13.812;2023-05-23T08:46:25;23.90;90.00
63313;DHT22;49442;45.640;13.812;2023-05-23T08:48:55;23.90;88.50
63313;DHT22;49442;45.640;13.812;2023-05-23T08:51:22;23.90;90.10
63313;DHT22;49442;45.640;13.812;2023-05-23T08:53:49;24.00;87.40
63313;DHT22;49442;45.640;13.812;2023-05-23T08:56:15;24.10;87.30
63313;DHT22;49442;45.640;13.812;2023-05-23T08:58:41;24.20;88.90
63313;DHT22;49442;45.640;13.812;2023-05-23T09:01:11;24.20;88.10
63313;DHT22;49442;45.640;13.812;2023-05-23T09:03:39;24.20;89.40
63313;DHT22;49442;45.640;13.812;2023-05-23T09:06:07;24.30;87.60
63313;DHT22;49442;45.640;13.812;2023-05-23T09:08:33;24.40;89.90
63313;DHT22;49442;45.640;13.812;2023-05-23T09:11:01;24.50;85.30
63313;DHT22;49442;45.640;13.812;2023-05-23T09:13:28;24.60;84.20
63313;DHT22;49442;45.640;13.812;2023-05-23T09:16:03;24.60;84.30
63313;DHT22;49442;45.640;13.812;2023-05-23T09:18:37;24.70;86.80
63313;DHT22;49442;45.640;13.812;2023-05-23T09:21:04;24.70;83.70
63313;DHT22;49442;45.640;13.812;2023-05-23T09:23:34;24.80;84.30
63313;DHT22;49442;45.640;13.812;2023-05-23T09:26:07;24.90;85.50
63313;DHT22;49442;45.640;13.812;2023-05-23T09:28:34;25.00;81.80
63313;DHT22;49442;45.640;13.812;2023-05-23T09:31:04;25.00;81.30
63313;DHT22;49442;45.640;13.812;2023-05-23T09:33:46;24.90;78.10
63313;DHT22;49442;45.640;13.812;2023-05-23T09:36:13;24.80;80.10
63313;DHT22;49442;45.640;13.812;2023-05-23T09:38:40;24.90;81.20
63313;DHT22;49442;45.640;13.812;2023-05-23T09:41:06;24.90;80.00
63313;DHT22;49442;45.640;13.812;2023-05-23T09:43:32;25.00;81.70
63313;DHT22;49442;45.640;13.812;2023-05-23T09:46:10;25.20;81.30
63313;DHT22;49442;45.640;13.812;2023-05-23T09:48:36;25.20;80.60
63313;DHT22;49442;45.640;13.812;2023-05-23T09:51:09;25.20;78.10
63313;DHT22;49442;45.640;13.812;2023-05-23T09:53:35;25.20;79.80
63313;DHT22;49442;45.640;13.812;2023-05-23T09:56:02;25.20;75.80
63313;DHT22;49442;45.640;13.812;2023-05-23T09:58:29;25.20;77.80
63313;DHT22;49442;45.640;13.812;2023-05-23T10:00:59;25.30;78.20
63313;DHT22;49442;45.640;13.812;2023-05-23T10:03:34;25.20;74.40
63313;DHT22;49442;45.640;13.812;2023-05-23T10:06:23;25.20;79.10
63313;DHT22;49442;45.640;13.812;2023-05-23T10:09:03;25.20;75.70
63313;DHT22;49442;45.640;13.812;2023-05-23T10:14:05;25.20;74.30
63313;DHT22;49442;45.640;13.812;2023-05-23T10:19:23;25.40;75.20
63313;DHT22;49442;45.640;13.812;2023-05-23T10:22:01;25.30;74.10
63313;DHT22;49442;45.640;13.812;2023-05-23T10:24:28;25.30;72.20
63313;DHT22;49442;45.640;13.812;2023-05-23T10:26:55;25.30;75.90
63313;DHT22;49442;45.640;13.812;2023-05-23T10:29:24;25.20;72.80
63313;DHT22;49442;45.640;13.812;2023-05-23T10:31:51;25.20;76.60
63313;DHT22;49442;45.640;13.812;2023-05-23T10:37:23;25.30;72.40
63313;DHT22;49442;45.640;13.812;2023-05-23T10:42:55;25.20;74.40
63313;DHT22;49442;45.640;13.812;2023-05-23T10:45:23;25.30;74.90
63313;DHT22;49442;45.640;13.812;2023-05-23T10:47:50;25.40;74.30
63313;DHT22;49442;45.640;13.812;2023-05-23T10:50:35;25.40;74.00
63313;DHT22;49442;45.640;13.812;2023-05-23T10:53:06;25.50;76.50
63313;DHT22;49442;45.640;13.812;2023-05-23T10:55:35;25.50;75.30
63313;DHT22;49442;45.640;13.812;2023-05-23T10:58:18;25.50;76.50
63313;DHT22;49442;45.640;13.812;2023-05-23T11:00:52;25.60;75.40
63313;DHT22;49442;45.640;13.812;2023-05-23T11:03:29;25.60;77.50
63313;DHT22;49442;45.640;13.812;2023-05-23T11:05:56;25.70;75.90
63313;DHT22;49442;45.640;13.812;2023-05-23T11:08:23;25.60;74.50
63313;DHT22;49442;45.640;13.812;2023-05-23T11:13:19;25.70;74.60
63313;DHT22;49442;45.640;13.812;2023-05-23T11:15:46;25.70;72.40
63313;DHT22;49442;45.640;13.812;2023-05-23T11:18:23;25.60;73.10
63313;DHT22;49442;45.640;13.812;2023-05-23T11:20:54;25.80;76.10
63313;DHT22;49442;45.640;13.812;2023-05-23T11:23:21;25.80;75.00
63313;DHT22;49442;45.640;13.812;2023-05-23T11:25:51;25.70;72.40
63313;DHT22;49442;45.640;13.812;2023-05-23T11:28:18;25.70;74.50
63313;DHT22;49442;45.640;13.812;2023-05-23T11:30:47;25.70;73.90
63313;DHT22;49442;45.640;13.812;2023-05-23T11:33:14;25.70;73.60
63313;DHT22;49442;45.640;13.812;2023-05-23T11:35:46;25.80;76.00
63313;DHT22;49442;45.640;13.812;2023-05-23T11:38:13;25.80;73.50
63313;DHT22;49442;45.640;13.812;2023-05-23T11:40:41;25.70;76.50
63313;DHT22;49442;45.640;13.812;2023-05-23T11:43:09;25.70;75.40
63313;DHT22;49442;45.640;13.812;2023-05-23T11:45:36;25.70;76.00
63313;DHT22;49442;45.640;13.812;2023-05-23T11:48:10;25.60;76.70
63313;DHT22;49442;45.640;13.812;2023-05-23T11:53:10;25.80;78.90
63313;DHT22;49442;45.640;13.812;2023-05-23T11:55:39;25.70;76.30
63313;DHT22;49442;45.640;13.812;2023-05-23T11:58:06;25.70;72.80
63313;DHT22;49442;45.640;13.812;2023-05-23T12:00:32;25.70;73.70
63313;DHT22;49442;45.640;13.812;2023-05-23T12:02:57;25.70;75.00
63313;DHT22;49442;45.640;13.812;2023-05-23T12:05:30;25.70;75.20
63313;DHT22;49442;45.640;13.812;2023-05-23T12:07:58;25.70;76.60
63313;DHT22;49442;45.640;13.812;2023-05-23T12:10:26;25.80;75.40
63313;DHT22;49442;45.640;13.812;2023-05-23T12:12:53;25.70;73.20
63313;DHT22;49442;45.640;13.812;2023-05-23T12:15:24;25.70;74.10
63313;DHT22;49442;45.640;13.812;2023-05-23T12:17:52;25.70;72.20
63313;DHT22;49442;45.640;13.812;2023-05-23T12:20:19;25.70;75.00
63313;DHT22;49442;45.640;13.812;2023-05-23T12:22:45;25.80;75.00
63313;DHT22;49442;45.640;13.812;2023-05-23T12:25:11;25.90;74.40
63313;DHT22;49442;45.640;13.812;2023-05-23T12:27:39;25.80;75.90
63313;DHT22;49442;45.640;13.812;2023-05-23T12:30:12;25.80;76.00
63313;DHT22;49442;45.640;13.812;2023-05-23T12:32:40;25.80;73.90
63313;DHT22;49442;45.640;13.812;2023-05-23T12:35:11;25.80;75.00
63313;DHT22;49442;45.640;13.812;2023-05-23T12:37:44;25.80;74.10
63313;DHT22;49442;45.640;13.812;2023-05-23T12:40:15;26.00;76.20
63313;DHT22;49442;45.640;13.812;2023-05-23T12:42:52;25.90;75.00
63313;DHT22;49442;45.640;13.812;2023-05-23T12:45:32;26.00;75.40
63313;DHT22;49442;45.640;13.812;2023-05-23T12:47:59;25.90;74.10
63313;DHT22;49442;45.640;13.812;2023-05-23T12:50:25;25.80;77.00
63313;DHT22;49442;45.640;13.812;2023-05-23T12:52:51;25.70;76.90
63313;DHT22;49442;45.640;13.812;2023-05-23T12:55:17;25.70;75.70
63313;DHT22;49442;45.640;13.812;2023-05-23T12:57:42;25.70;76.00
63313;DHT22;49442;45.640;13.812;2023-05-23T13:00:09;25.60;75.00
63313;DHT22;49442;45.640;13.812;2023-05-23T13:02:36;25.60;74.50
63313;DHT22;49442;45.640;13.812;2023-05-23T13:05:02;25.50;75.00
63313;DHT22;49442;45.640;13.812;2023-05-23T13:07:27;25.60;75.40
63313;DHT22;49442;45.640;13.812;2023-05-23T13:09:53;25.50;75.40
63313;DHT22;49442;45.640;13.812;2023-05-23T13:12:19;25.60;76.80
63313;DHT22;49442;45.640;13.812;2023-05-23T13:14:45;25.80;79.20
63313;DHT22;49442;45.640;13.812;2023-05-23T13:17:11;25.90;78.60
63313;DHT22;49442;45.640;13.812;2023-05-23T13:19:37;25.80;75.30
63313;DHT22;49442;45.640;13.812;2023-05-23T13:22:05;26.00;75.20
63313;DHT22;49442;45.640;13.812;2023-05-23T13:24:30;26.10;77.30
63313;DHT22;49442;45.640;13.812;2023-05-23T13:26:56;26.20;77.60
63313;DHT22;49442;45.640;13.812;2023-05-23T13:29:22;26.10;74.90
63313;DHT22;49442;45.640;13.812;2023-05-23T13:31:48;26.10;74.40
63313;DHT22;49442;45.640;13.812;2023-05-23T13:34:13;26.00;76.40
63313;DHT22;49442;45.640;13.812;2023-05-23T13:36:39;26.10;75.40
63313;DHT22;49442;45.640;13.812;2023-05-23T13:39:05;26.00;76.00
63313;DHT22;49442;45.640;13.812;2023-05-23T13:41:31;25.90;74.40
63313;DHT22;49442;45.640;13.812;2023-05-23T13:43:57;26.00;77.30
63313;DHT22;49442;45.640;13.812;2023-05-23T13:46:22;26.00;76.90
63313;DHT22;49442;45.640;13.812;2023-05-23T13:48:48;26.10;78.20
63313;DHT22;49442;45.640;13.812;2023-05-23T13:51:14;26.10;75.50
63313;DHT22;49442;45.640;13.812;2023-05-23T13:53:39;26.10;77.10
63313;DHT22;49442;45.640;13.812;2023-05-23T13:56:05;26.10;74.00
63313;DHT22;49442;45.640;13.812;2023-05-23T13:58:31;26.10;76.20
63313;DHT22;49442;45.640;13.812;2023-05-23T14:00:57;26.10;76.40
63313;DHT22;49442;45.640;13.812;2023-05-23T14:03:23;26.10;76.30
63313;DHT22;49442;45.640;13.812;2023-05-23T14:05:49;26.10;75.30
63313;DHT22;49442;45.640;13.812;2023-05-23T14:08:15;26.10;75.30
63313;DHT22;49442;45.640;13.812;2023-05-23T14:10:41;26.00;76.90
63313;DHT22;49442;45.640;13.812;2023-05-23T14:13:06;25.80;75.30
63313;DHT22;49442;45.640;13.812;2023-05-23T14:15:33;25.70;76.30
63313;DHT22;49442;45.640;13.812;2023-05-23T14:17:58;25.60;76.30
63313;DHT22;49442;45.640;13.812;2023-05-23T14:20:24;25.50;75.30
63313;DHT22;49442;45.640;13.812;2023-05-23T14:22:50;25.40;76.60
63313;DHT22;49442;45.640;13.812;2023-05-23T14:25:17;25.40;76.50
63313;DHT22;49442;45.640;13.812;2023-05-23T14:27:43;25.30;79.90
63313;DHT22;49442;45.640;13.812;2023-05-23T14:30:09;25.30;74.50
63313;DHT22;49442;45.640;13.812;2023-05-23T14:32:35;25.20;78.00
63313;DHT22;49442;45.640;13.812;2023-05-23T14:35:05;25.10;77.30
63313;DHT22;49442;45.640;13.812;2023-05-23T14:37:31;25.00;78.80
63313;DHT22;49442;45.640;13.812;2023-05-23T14:39:57;24.90;77.60
63313;DHT22;49442;45.640;13.812;2023-05-23T14:42:23;24.90;76.00
63313;DHT22;49442;45.640;13.812;2023-05-23T14:44:48;24.80;75.20
63313;DHT22;49442;45.640;13.812;2023-05-23T14:47:14;24.70;76.60
63313;DHT22;49442;45.640;13.812;2023-05-23T14:49:40;24.70;75.70
63313;DHT22;49442;45.640;13.812;2023-05-23T14:52:05;24.80;75.80
63313;DHT22;49442;45.640;13.812;2023-05-23T14:54:31;24.80;80.40
63313;DHT22;49442;45.640;13.812;2023-05-23T14:56:57;24.80;76.00
63313;DHT22;49442;45.640;13.812;2023-05-23T14:59:23;24.80;74.80
63313;DHT22;49442;45.640;13.812;2023-05-23T15:01:48;25.00;77.00
63313;DHT22;49442;45.640;13.812;2023-05-23T15:04:14;24.90;73.30
63313;DHT22;49442;45.640;13.812;2023-05-23T15:06:40;25.00;77.40
63313;DHT22;49442;45.640;13.812;2023-05-23T15:09:07;24.90;73.40
63313;DHT22;49442;45.640;13.812;2023-05-23T15:11:35;24.90;72.00
63313;DHT22;49442;45.640;13.812;2023-05-23T15:14:02;24.90;73.20
63313;DHT22;49442;45.640;13.812;2023-05-23T15:16:28;24.80;72.90
63313;DHT22;49442;45.640;13.812;2023-05-23T15:18:57;24.80;74.10
63313;DHT22;49442;45.640;13.812;2023-05-23T15:21:24;25.00;78.20
63313;DHT22;49442;45.640;13.812;2023-05-23T15:23:50;25.10;74.90
63313;DHT22;49442;45.640;13.812;2023-05-23T15:26:15;25.10;77.50
63313;DHT22;49442;45.640;13.812;2023-05-23T15:28:41;25.10;77.40
63313;DHT22;49442;45.640;13.812;2023-05-23T15:31:07;25.00;76.90
63313;DHT22;49442;45.640;13.812;2023-05-23T15:33:32;24.90;75.30
63313;DHT22;49442;45.640;13.812;2023-05-23T15:35:58;24.80;72.60
63313;DHT22;49442;45.640;13.812;2023-05-23T15:38:24;24.80;75.40
63313;DHT22;49442;45.640;13.812;2023-05-23T15:40:50;24.70;74.90